Time;durP1;ratioP1;P1;durP2;ratioP2;P2;SDS_P1;SDS_P2;PMS_P1;PMS_P2;Temp;Humidity;BMP_temperature;BMP_pressure;BME280_temperature;BME280_humidity;BME280_pressure;Samples;Min_cycle;Max_cycle;Signal;HPM_P1;HPM_P2
2023/05/30 00:01:25;;;;;;;6.80;5.00;;;;;;;13.58;100.00;97251.06;110087;1241;71385;-70
2023/05/30 00:03:55;;;;;;;6.90;5.20;;;;;;;13.56;100.00;97253.02;110097;1241;69204;-70
2023/05/30 00:06:27;;;;;;;7.40;5.80;;;;;;;13.53;100.00;97251.73;110093;1241;69397;-70
2023/05/30 00:08:57;;;;;;;10.50;6.70;;;;;;;13.48;100.00;97252.14;110090;1244;59667;-70
2023/05/30 00:11:29;;;;;;;9.30;6.40;;;;;;;13.40;100.00;97251.30;110108;1245;59675;-72
2023/05/30 00:14:00;;;;;;;10.20;6.80;;;;;;;13.33;100.00;97255.90;110123;1243;70719;-71
2023/05/30 00:16:31;;;;;;;8.00;5.90;;;;;;;13.26;100.00;97254.20;110149;1244;68596;-69
2023/05/30 00:19:08;;;;;;;7.40;5.70;;;;;;;13.20;100.00;97252.20;110124;1244;69217;-71
2023/05/30 00:21:37;;;;;;;7.10;5.40;;;;;;;13.15;100.00;97252.52;110134;1245;59748;-72
2023/05/30 00:24:07;;;;;;;8.20;6.10;;;;;;;13.11;100.00;97254.94;110158;1245;59677;-70
2023/05/30 00:26:36;;;;;;;6.20;4.90;;;;;;;13.06;100.00;97252.90;110122;1241;70537;-70
2023/05/30 00:29:05;;;;;;;8.60;6.50;;;;;;;13.00;100.00;97254.27;109750;1248;69237;-70
2023/05/30 00:31:36;;;;;;;11.00;7.30;;;;;;;12.94;100.00;97254.14;109818;1246;69871;-70
2023/05/30 00:34:06;;;;;;;7.20;5.80;;;;;;;12.85;100.00;97254.17;110089;1245;59699;-70
2023/05/30 00:36:35;;;;;;;10.70;7.20;;;;;;;12.79;100.00;97257.65;110119;1245;59640;-71
2023/05/30 00:39:05;;;;;;;8.50;6.80;;;;;;;12.73;100.00;97256.41;109814;1244;71326;-71
2023/05/30 00:41:36;;;;;;;9.10;6.50;;;;;;;12.69;100.00;97254.48;110124;1245;69153;-71
2023/05/30 00:44:05;;;;;;;11.30;8.00;;;;;;;12.69;100.00;97255.70;110101;1244;69302;-70
2023/05/30 00:46:35;;;;;;;9.00;6.30;;;;;;;12.67;100.00;97256.23;110079;1242;59792;-70
2023/05/30 00:49:03;;;;;;;7.90;5.20;;;;;;;12.65;100.00;97256.17;110100;1244;59717;-70
2023/05/30 00:51:33;;;;;;;7.00;5.90;;;;;;;12.63;100.00;97261.08;110088;1243;71389;-70
2023/05/30 00:54:03;;;;;;;7.10;5.70;;;;;;;12.63;100.00;97266.89;110131;1245;69267;-70
2023/05/30 00:56:38;;;;;;;8.80;5.90;;;;;;;12.62;100.00;97267.29;110094;1241;68636;-70
2023/05/30 00:59:07;;;;;;;8.30;6.10;;;;;;;12.61;100.00;97267.70;109849;1247;59701;-71
2023/05/30 01:01:38;;;;;;;7.30;6.20;;;;;;;12.57;100.00;97268.93;110030;1245;59692;-70
2023/05/30 01:04:10;;;;;;;8.20;5.90;;;;;;;12.55;100.00;97276.48;110077;1241;71407;-70
2023/05/30 01:06:40;;;;;;;6.50;5.30;;;;;;;12.52;100.00;97277.39;110007;1245;69201;-70
2023/05/30 01:09:09;;;;;;;9.00;6.20;;;;;;;12.50;100.00;97274.61;109955;1245;69245;-70
2023/05/30 01:11:58;;;;;;;8.90;6.00;;;;;;;12.48;100.00;97276.81;110105;1244;59755;-70
2023/05/30 01:14:50;;;;;;;7.90;5.20;;;;;;;12.45;100.00;97275.14;110127;1246;59624;-70
2023/05/30 01:17:33;;;;;;;12.60;7.40;;;;;;;12.43;100.00;97271.48;109783;1247;70605;-70
2023/05/30 01:20:13;;;;;;;7.60;5.10;;;;;;;12.36;100.00;97266.81;109841;1246;69165;-70
2023/05/30 01:23:27;;;;;;;9.50;6.00;;;;;;;12.31;100.00;97266.04;110099;1242;68248;-70
2023/05/30 01:26:08;;;;;;;11.80;5.20;;;;;;;12.27;100.00;97265.70;109386;1253;59878;-69
2023/05/30 01:28:38;;;;;;;19.50;6.80;;;;;;;12.22;100.00;97267.39;109799;1246;59781;-69
2023/05/30 01:31:09;;;;;;;11.70;7.00;;;;;;;12.16;100.00;97263.34;110106;1243;71326;-70
2023/05/30 01:33:44;;;;;;;11.20;6.00;;;;;;;12.11;100.00;97262.93;109767;1246;68179;-70
2023/05/30 01:36:14;;;;;;;8.40;6.30;;;;;;;12.06;100.00;97263.48;110089;1243;68546;-71
2023/05/30 01:38:44;;;;;;;8.70;6.30;;;;;;;12.02;100.00;97265.79;110138;1245;59654;-70
2023/05/30 01:41:25;;;;;;;9.60;5.70;;;;;;;12.00;100.00;97267.16;110082;1242;59681;-72
2023/05/30 01:44:06;;;;;;;10.20;5.20;;;;;;;11.97;100.00;97266.65;110111;1244;70746;-71
2023/05/30 01:46:40;;;;;;;18.20;5.70;;;;;;;11.95;100.00;97266.84;109842;1244;69101;-72
2023/05/30 01:49:50;;;;;;;13.60;5.40;;;;;;;11.92;100.00;97272.35;109811;1246;67635;-71
2023/05/30 01:52:27;;;;;;;5.00;4.00;;;;;;;11.92;100.00;97274.28;109739;1248;59767;-70
2023/05/30 01:55:03;;;;;;;8.50;6.00;;;;;;;11.92;100.00;97278.83;109836;1246;59684;-70
2023/05/30 01:57:33;;;;;;;11.20;6.80;;;;;;;11.89;100.00;97278.72;109805;1246;72018;-71
2023/05/30 02:00:02;;;;;;;9.20;6.30;;;;;;;11.85;100.00;97283.90;109792;1242;68434;-70
2023/05/30 02:02:43;;;;;;;10.40;5.70;;;;;;;11.83;100.00;97287.37;110125;1245;69615;-70
2023/05/30 02:05:13;;;;;;;62.10;8.80;;;;;;;11.81;100.00;97286.85;110112;1241;59784;-70
2023/05/30 02:07:43;;;;;;;;;;;;;;;11.76;100.00;97288.10;109819;1241;59812;-70
2023/05/30 02:10:13;;;;;;;21.80;5.80;;;;;;;11.69;100.00;97285.98;110129;1245;71481;-70
2023/05/30 02:12:52;;;;;;;24.90;6.60;;;;;;;11.64;100.00;97286.56;110124;1244;69141;-70
2023/05/30 02:15:23;;;;;;;21.60;7.80;;;;;;;11.61;100.00;97289.63;109794;1245;69264;-70
2023/05/30 02:17:54;;;;;;;20.00;7.60;;;;;;;11.58;100.00;97288.77;109750;1245;59739;-70
2023/05/30 02:20:24;;;;;;;9.30;5.50;;;;;;;11.55;100.00;97290.29;110112;1245;59609;-70
2023/05/30 02:22:52;;;;;;;7.10;5.40;;;;;;;11.53;100.00;97289.41;110102;1244;71420;-70
2023/05/30 02:25:21;;;;;;;8.90;5.20;;;;;;;11.51;100.00;97286.95;110118;1243;69377;-70
2023/05/30 02:27:50;;;;;;;7.70;5.30;;;;;;;11.49;100.00;97287.77;110093;1245;69847;-70
2023/05/30 02:30:20;;;;;;;8.40;5.20;;;;;;;11.47;100.00;97290.86;109851;1248;59710;-70
2023/05/30 02:32:48;;;;;;;8.10;5.20;;;;;;;11.46;100.00;97290.80;109849;1246;59743;-70
2023/05/30 02:35:20;;;;;;;6.30;4.90;;;;;;;11.45;100.00;97294.33;110044;1243;72042;-70
2023/05/30 02:37:50;;;;;;;6.40;5.60;;;;;;;11.45;100.00;97300.66;110110;1244;69233;-70
2023/05/30 02:40:18;;;;;;;6.90;5.30;;;;;;;11.46;100.00;97297.56;110100;1244;69377;-70
2023/05/30 02:42:49;;;;;;;7.80;5.40;;;;;;;11.46;100.00;97295.52;110103;1245;60079;-69
2023/05/30 02:45:18;;;;;;;9.00;6.80;;;;;;;11.48;100.00;97295.00;109783;1246;59639;-70
2023/05/30 02:47:47;;;;;;;7.20;5.90;;;;;;;11.49;100.00;97291.41;109837;1241;71294;-71
2023/05/30 02:50:17;;;;;;;7.60;6.50;;;;;;;11.51;100.00;97296.67;110006;1244;69098;-72
2023/05/30 02:52:46;;;;;;;7.40;6.40;;;;;;;11.51;100.00;97298.25;109908;1245;68844;-70
2023/05/30 02:55:16;;;;;;;6.60;5.30;;;;;;;11.51;100.00;97300.02;109809;1247;60105;-71
2023/05/30 02:58:13;;;;;;;8.40;5.60;;;;;;;11.54;100.00;97302.89;110159;1244;59700;-71
2023/05/30 03:00:59;;;;;;;10.00;6.50;;;;;;;11.53;100.00;97300.50;110095;1241;72310;-69
2023/05/30 03:03:28;;;;;;;7.40;5.40;;;;;;;11.54;100.00;97299.92;109868;1245;69666;-69
2023/05/30 03:06:18;;;;;;;7.40;6.30;;;;;;;11.54;100.00;97294.38;109987;1244;69899;-69
2023/05/30 03:08:59;;;;;;;8.80;6.80;;;;;;;11.54;100.00;97293.52;109799;1245;60135;-70
2023/05/30 03:11:27;;;;;;;11.70;8.20;;;;;;;11.51;100.00;97291.81;110157;1243;59638;-70
2023/05/30 03:13:56;;;;;;;12.30;9.10;;;;;;;11.45;100.00;97293.08;110130;1243;71422;-70
2023/05/30 03:16:24;;;;;;;8.20;6.60;;;;;;;11.41;100.00;97292.91;110097;1245;70217;-70
2023/05/30 03:18:55;;;;;;;9.40;7.50;;;;;;;11.38;100.00;97295.08;110081;1245;69324;-70
2023/05/30 03:21:24;;;;;;;7.90;6.60;;;;;;;11.35;100.00;97297.80;109772;1241;59707;-70
2023/05/30 03:23:52;;;;;;;8.50;7.50;;;;;;;11.35;100.00;97300.02;110017;1245;59673;-69
2023/05/30 03:26:25;;;;;;;9.30;7.50;;;;;;;11.35;100.00;97301.77;109745;1244;70700;-71
2023/05/30 03:28:53;;;;;;;10.10;6.70;;;;;;;11.35;100.00;97299.84;110107;1245;69189;-70
2023/05/30 03:31:24;;;;;;;14.40;6.80;;;;;;;11.37;100.00;97299.85;109839;1244;69752;-70
2023/05/30 03:33:53;;;;;;;19.50;6.80;;;;;;;11.42;100.00;97302.42;109799;1248;59760;-69
2023/05/30 03:36:22;;;;;;;9.50;6.60;;;;;;;11.46;100.00;97305.40;109792;1246;59656;-71
2023/05/30 03:38:50;;;;;;;9.90;5.50;;;;;;;11.50;100.00;97307.73;109803;1242;70481;-70
2023/05/30 03:41:21;;;;;;;36.90;9.00;;;;;;;11.54;100.00;97312.30;109808;1248;67614;-70
2023/05/30 03:43:51;;;;;;;9.80;6.00;;;;;;;11.59;100.00;97315.04;109917;1244;69651;-71
2023/05/30 03:46:21;;;;;;;9.70;6.40;;;;;;;11.67;100.00;97314.05;110146;1245;59703;-69
2023/05/30 03:48:49;;;;;;;9.80;6.50;;;;;;;11.73;100.00;97311.01;109829;1245;59688;-70
2023/05/30 03:51:18;;;;;;;11.10;6.80;;;;;;;11.81;100.00;97310.37;110120;1245;71414;-69
2023/05/30 03:53:47;;;;;;;5.90;4.90;;;;;;;11.91;100.00;97312.60;110111;1245;69869;-70
2023/05/30 03:56:15;;;;;;;7.80;6.00;;;;;;;12.00;100.00;97315.52;110114;1241;68966;-70
2023/05/30 03:58:45;;;;;;;10.90;8.10;;;;;;;12.10;100.00;97321.20;110065;1244;59735;-70
2023/05/30 04:01:15;;;;;;;7.90;6.40;;;;;;;12.19;100.00;97322.69;109850;1244;59728;-70
2023/05/30 04:03:45;;;;;;;7.30;6.30;;;;;;;12.28;100.00;97322.34;110058;1245;72190;-70
2023/05/30 04:06:14;;;;;;;9.90;6.50;;;;;;;12.38;100.00;97320.80;110118;1244;69134;-70
2023/05/30 04:08:43;;;;;;;7.40;6.50;;;;;;;12.48;100.00;97321.41;110086;1245;68953;-70
2023/05/30 04:11:11;;;;;;;7.60;5.60;;;;;;;12.60;100.00;97321.34;109848;1246;59763;-70
2023/05/30 04:13:39;;;;;;;7.20;6.50;;;;;;;12.71;100.00;97320.17;110108;1244;59696;-70
2023/05/30 04:16:08;;;;;;;7.90;6.40;;;;;;;12.77;100.00;97317.46;110123;1242;70505;-70
2023/05/30 04:18:43;;;;;;;8.50;6.80;;;;;;;12.83;100.00;97318.56;110129;1244;68631;-70
2023/05/30 04:21:15;;;;;;;9.60;6.70;;;;;;;12.94;100.00;97321.61;109783;1246;69994;-71
2023/05/30 04:23:44;;;;;;;7.70;6.10;;;;;;;13.11;100.00;97321.23;109798;1245;59725;-69
2023/05/30 04:26:12;;;;;;;7.80;6.00;;;;;;;13.28;100.00;97318.10;109750;1244;59814;-69
2023/05/30 04:28:42;;;;;;;9.90;7.00;;;;;;;13.48;100.00;97320.08;110118;1242;71345;-69
2023/05/30 04:31:11;;;;;;;8.60;6.70;;;;;;;13.66;100.00;97318.68;110118;1245;69271;-69
2023/05/30 04:33:51;;;;;;;;;;;;;;;13.85;100.00;97321.54;110113;1244;69851;-70
2023/05/30 04:36:19;;;;;;;9.80;6.40;;;;;;;14.03;100.00;97319.61;110111;1245;59666;-69
2023/05/30 04:38:52;;;;;;;13.80;7.20;;;;;;;14.21;100.00;97325.54;109753;1246;59685;-69
2023/05/30 04:41:24;;;;;;;6.90;5.40;;;;;;;14.40;100.00;97320.55;109796;1244;71583;-69
2023/05/30 04:44:00;;;;;;;7.90;5.50;;;;;;;14.57;100.00;97319.79;110072;1244;70090;-69
2023/05/30 04:46:30;;;;;;;7.90;6.20;;;;;;;14.73;100.00;97323.88;109742;1247;69137;-69
2023/05/30 04:49:00;;;;;;;;;;;;;;;14.87;100.00;97323.67;109766;1244;59746;-69
2023/05/30 04:51:33;;;;;;;8.90;6.30;;;;;;;15.02;100.00;97320.73;109732;1246;59665;-70
2023/05/30 04:54:01;;;;;;;6.70;5.60;;;;;;;15.11;100.00;97325.46;110102;1244;71493;-71
2023/05/30 04:56:29;;;;;;;7.30;5.70;;;;;;;15.26;100.00;97329.56;110103;1245;69758;-69
2023/05/30 04:58:57;;;;;;;8.20;5.60;;;;;;;15.41;100.00;97332.67;110095;1241;68584;-70
2023/05/30 05:01:26;;;;;;;7.20;5.60;;;;;;;15.60;100.00;97337.23;110144;1245;59780;-70
2023/05/30 05:03:54;;;;;;;6.80;5.60;;;;;;;15.86;100.00;97338.52;110104;1246;59661;-71
2023/05/30 05:06:23;;;;;;;7.10;5.60;;;;;;;16.04;100.00;97338.05;110093;1245;71319;-72
2023/05/30 05:08:53;;;;;;;6.80;5.40;;;;;;;16.36;100.00;97336.48;110098;1245;69550;-71
2023/05/30 05:11:21;;;;;;;7.00;5.20;;;;;;;16.68;100.00;97339.31;110106;1244;69312;-70
2023/05/30 05:13:49;;;;;;;5.60;4.70;;;;;;;17.07;100.00;97345.20;110149;1243;59830;-71
2023/05/30 05:16:17;;;;;;;5.50;4.10;;;;;;;17.56;100.00;97344.25;109758;1248;59678;-71
2023/05/30 05:18:45;;;;;;;7.50;5.00;;;;;;;18.01;99.32;97342.41;110109;1244;72008;-71
2023/05/30 05:21:14;;;;;;;5.70;4.80;;;;;;;18.29;95.96;97338.27;110085;1244;69856;-71
2023/05/30 05:23:42;;;;;;;7.60;4.60;;;;;;;18.47;84.24;97342.04;110041;1243;69304;-71
2023/05/30 05:26:10;;;;;;;5.50;4.60;;;;;;;18.85;94.04;97338.73;110149;1244;60072;-71
2023/05/30 05:28:37;;;;;;;6.40;5.00;;;;;;;19.07;90.45;97336.48;110085;1245;59685;-70
2023/05/30 05:31:06;;;;;;;5.50;4.20;;;;;;;19.16;84.17;97335.69;110111;1244;71407;-70
2023/05/30 05:33:34;;;;;;;6.00;4.80;;;;;;;19.06;83.74;97336.19;110110;1244;68491;-71
2023/05/30 05:36:02;;;;;;;6.20;5.40;;;;;;;19.02;82.21;97340.69;110095;1244;68656;-69
2023/05/30 05:38:32;;;;;;;6.30;4.50;;;;;;;18.87;83.41;97343.37;110089;1244;59704;-69
2023/05/30 05:41:00;;;;;;;6.10;4.90;;;;;;;18.89;82.93;97344.42;110085;1245;59690;-70
2023/05/30 05:43:28;;;;;;;7.50;5.00;;;;;;;18.94;82.80;97346.96;110151;1245;72387;-68
2023/05/30 05:45:55;;;;;;;6.70;5.40;;;;;;;18.87;82.36;97347.64;110115;1245;68365;-69
2023/05/30 05:48:23;;;;;;;6.80;4.70;;;;;;;18.87;82.07;97347.29;110118;1244;69915;-71
2023/05/30 05:50:51;;;;;;;6.00;4.30;;;;;;;18.84;81.50;97348.17;110127;1245;59740;-70
2023/05/30 05:53:20;;;;;;;5.70;4.30;;;;;;;18.92;82.17;97345.89;110113;1244;59639;-70
2023/05/30 05:55:48;;;;;;;5.50;4.10;;;;;;;18.96;81.02;97348.30;110125;1246;72058;-71
2023/05/30 05:58:16;;;;;;;5.40;4.10;;;;;;;18.98;82.13;97350.48;110143;1243;67761;-71
2023/05/30 06:00:43;;;;;;;6.10;4.80;;;;;;;19.00;81.10;97348.83;110122;1244;69558;-71
2023/05/30 06:03:12;;;;;;;5.90;4.50;;;;;;;18.89;79.60;97347.60;110109;1241;59849;-69
2023/05/30 06:05:41;;;;;;;6.50;4.70;;;;;;;19.05;81.45;97349.52;110068;1245;59701;-68
2023/05/30 06:08:09;;;;;;;7.60;5.10;;;;;;;19.22;81.18;97349.26;110125;1251;71372;-70
2023/05/30 06:10:36;;;;;;;6.30;4.60;;;;;;;19.29;78.28;97347.33;110122;1245;69676;-69
2023/05/30 06:13:04;;;;;;;6.40;4.50;;;;;;;19.49;78.81;97348.68;110086;1245;69292;-70
2023/05/30 06:15:32;;;;;;;5.50;3.90;;;;;;;19.69;77.19;97354.02;110112;1245;59699;-70
2023/05/30 06:18:00;;;;;;;7.30;4.60;;;;;;;19.97;76.54;97352.55;110092;1245;59091;-69
2023/05/30 06:20:28;;;;;;;8.00;4.70;;;;;;;20.25;72.53;97357.68;110064;1244;70459;-70
2023/05/30 06:22:56;;;;;;;6.60;4.70;;;;;;;20.47;71.61;97357.09;110071;1243;69483;-69
2023/05/30 06:25:26;;;;;;;7.40;4.80;;;;;;;20.86;72.76;97357.98;110069;1244;68805;-69
2023/05/30 06:27:53;;;;;;;6.50;4.60;;;;;;;21.17;70.05;97358.92;110117;1245;59651;-69
2023/05/30 06:30:21;;;;;;;6.10;4.00;;;;;;;21.49;69.25;97363.19;110100;1244;59676;-70
2023/05/30 06:32:49;;;;;;;6.60;4.30;;;;;;;21.98;70.87;97363.55;110146;1245;71952;-69
2023/05/30 06:35:17;;;;;;;5.80;4.60;;;;;;;22.25;64.66;97361.63;110158;1241;68201;-70
2023/05/30 06:37:46;;;;;;;6.50;4.30;;;;;;;22.64;67.69;97358.95;110136;1244;69652;-70
2023/05/30 06:40:13;;;;;;;5.30;3.60;;;;;;;22.88;64.55;97353.84;110173;1244;59734;-70
2023/05/30 06:42:43;;;;;;;5.40;3.80;;;;;;;22.96;60.93;97351.58;110133;1245;60163;-70
2023/05/30 06:45:12;;;;;;;5.30;3.90;;;;;;;23.07;61.79;97352.14;110120;1241;71881;-70
2023/05/30 06:47:40;;;;;;;4.60;3.90;;;;;;;23.42;61.84;97353.49;110103;1244;69405;-70
2023/05/30 06:50:09;;;;;;;5.60;3.40;;;;;;;23.71;59.90;97353.36;110057;1244;69902;-70
2023/05/30 06:52:36;;;;;;;5.90;4.00;;;;;;;23.99;59.06;97352.48;110104;1241;60174;-69
2023/05/30 06:55:05;;;;;;;7.40;3.70;;;;;;;24.14;57.63;97349.63;110114;1245;60140;-70
2023/05/30 06:57:36;;;;;;;5.10;3.70;;;;;;;24.20;55.84;97349.13;110085;1244;71444;-71
2023/05/30 07:00:05;;;;;;;6.90;4.10;;;;;;;24.42;55.09;97347.89;110271;1245;69405;-69
2023/05/30 07:02:33;;;;;;;4.50;3.70;;;;;;;24.41;51.34;97344.92;110170;1241;68479;-71
2023/05/30 07:05:01;;;;;;;5.20;3.70;;;;;;;24.43;53.31;97345.00;110207;1245;59726;-70
2023/05/30 07:07:28;;;;;;;5.60;3.20;;;;;;;24.68;50.36;97341.87;110171;1244;60149;-70
2023/05/30 07:09:56;;;;;;;4.60;3.30;;;;;;;24.77;50.92;97342.75;110102;1241;72108;-70
2023/05/30 07:12:25;;;;;;;5.30;3.80;;;;;;;24.97;51.42;97345.23;110083;1245;69811;-71
2023/05/30 07:14:53;;;;;;;6.20;3.20;;;;;;;24.67;48.11;97344.70;110121;1241;69468;-71
2023/05/30 07:17:21;;;;;;;8.10;3.40;;;;;;;24.90;48.34;97346.10;110136;1241;59744;-70
2023/05/30 07:19:49;;;;;;;4.70;3.10;;;;;;;24.96;47.30;97346.80;110167;1244;59633;-71
2023/05/30 07:22:17;;;;;;;5.60;3.30;;;;;;;24.80;47.00;97344.40;110143;1241;71937;-73
2023/05/30 07:24:45;;;;;;;5.70;3.10;;;;;;;24.47;42.28;97339.95;110306;1245;68765;-70
2023/05/30 07:27:12;;;;;;;4.20;3.10;;;;;;;24.58;44.54;97338.38;110235;1245;69389;-71
2023/05/30 07:29:40;;;;;;;5.00;3.00;;;;;;;24.87;46.17;97342.31;110165;1242;59744;-71
2023/05/30 07:32:10;;;;;;;5.10;3.70;;;;;;;25.10;45.39;97336.02;110261;1241;59701;-71
2023/05/30 07:34:38;;;;;;;5.80;3.60;;;;;;;25.30;44.77;97338.24;110130;1242;71058;-70
2023/05/30 07:37:05;;;;;;;4.30;2.90;;;;;;;25.35;42.91;97339.89;110193;1245;69897;-71
2023/05/30 07:39:33;;;;;;;6.90;3.30;;;;;;;25.40;41.68;97338.41;110245;1245;69736;-72
2023/05/30 07:42:00;;;;;;;4.70;3.30;;;;;;;25.48;42.53;97337.20;110254;1245;59692;-70
2023/05/30 07:44:27;;;;;;;4.70;3.00;;;;;;;25.47;41.73;97330.95;110248;1245;59744;-72
2023/05/30 07:46:55;;;;;;;6.30;3.90;;;;;;;25.44;42.26;97333.50;110255;1244;71499;-72
2023/05/30 07:49:23;;;;;;;8.70;3.20;;;;;;;25.22;43.77;97330.21;110238;1244;69533;-73
2023/05/30 07:51:50;;;;;;;4.20;3.40;;;;;;;25.04;45.79;97330.25;110270;1244;70033;-72
2023/05/30 07:54:18;;;;;;;5.10;3.20;;;;;;;25.24;46.87;97330.84;110242;1243;59755;-73
2023/05/30 07:56:45;;;;;;;5.10;3.30;;;;;;;25.77;45.43;97335.07;110371;1243;59692;-74
2023/05/30 07:59:13;;;;;;;4.20;2.90;;;;;;;26.23;42.24;97338.06;110449;1244;71465;-73
2023/05/30 08:01:41;;;;;;;3.80;3.00;;;;;;;26.42;41.30;97335.45;110251;1246;69254;-71
2023/05/30 08:04:09;;;;;;;4.70;2.70;;;;;;;26.62;40.79;97331.39;110240;1244;68721;-71
2023/05/30 08:06:36;;;;;;;5.70;2.90;;;;;;;26.63;38.84;97330.52;110140;1245;59757;-72
2023/05/30 08:09:04;;;;;;;4.40;2.90;;;;;;;26.88;39.07;97331.05;109984;1241;59837;-71
2023/05/30 08:11:32;;;;;;;4.80;2.80;;;;;;;27.12;37.09;97330.00;110201;1243;72104;-70
2023/05/30 08:14:00;;;;;;;5.20;3.10;;;;;;;27.41;37.69;97331.84;110163;1245;69812;-70
2023/05/30 08:16:28;;;;;;;4.30;3.10;;;;;;;27.43;35.77;97330.45;109943;1245;69193;-71
2023/05/30 08:18:57;;;;;;;3.60;2.50;;;;;;;26.97;33.70;97330.91;109961;1245;60105;-71
2023/05/30 08:21:26;;;;;;;4.30;3.40;;;;;;;26.85;35.56;97327.20;110079;1241;59697;-71
2023/05/30 08:23:55;;;;;;;;;;;;;;;27.02;34.80;97330.14;110191;1245;71528;-71
2023/05/30 08:26:30;;;;;;;6.00;3.70;;;;;;;26.71;33.61;97332.40;110147;1250;69105;-70
2023/05/30 08:28:58;;;;;;;4.00;3.10;;;;;;;26.79;32.61;97327.20;110136;1242;69415;-70
2023/05/30 08:31:27;;;;;;;4.00;2.80;;;;;;;26.57;33.28;97327.20;110089;1245;59696;-70
2023/05/30 08:33:54;;;;;;;;;;;;;;;26.50;32.52;97325.59;110197;1245;59699;-70
2023/05/30 08:36:22;;;;;;;4.20;2.80;;;;;;;26.36;34.71;97326.38;110143;1247;71401;-69
2023/05/30 08:38:54;;;;;;;6.20;3.00;;;;;;;26.60;34.93;97331.05;110153;1245;68460;-69
2023/05/30 08:41:41;;;;;;;4.00;2.90;;;;;;;26.12;33.30;97332.88;110018;1246;69211;-69
2023/05/30 08:44:09;;;;;;;3.40;2.90;;;;;;;26.80;34.48;97327.89;110238;1243;59684;-69
2023/05/30 08:46:42;;;;;;;5.00;3.20;;;;;;;27.45;35.60;97327.08;110172;1247;59753;-69
2023/05/30 08:49:13;;;;;;;4.30;2.80;;;;;;;27.72;34.75;97325.16;110065;1245;72335;-69
2023/05/30 08:51:43;;;;;;;6.10;2.80;;;;;;;27.85;35.12;97325.92;110109;1252;69340;-70
2023/05/30 08:54:20;;;;;;;4.30;2.50;;;;;;;28.12;34.54;97324.49;110094;1245;70010;-71
2023/05/30 08:57:02;;;;;;;5.40;2.80;;;;;;;28.19;33.05;97321.63;110111;1244;59730;-70
2023/05/30 08:59:30;;;;;;;4.00;2.40;;;;;;;27.96;30.81;97322.63;110137;1246;59729;-69
2023/05/30 09:01:58;;;;;;;3.90;2.50;;;;;;;27.73;30.72;97321.85;110126;1245;70477;-69
2023/05/30 09:04:26;;;;;;;3.70;2.40;;;;;;;27.19;30.02;97316.35;110086;1245;70139;-69
2023/05/30 09:06:57;;;;;;;2.90;2.30;;;;;;;27.18;31.20;97313.60;110073;1251;69313;-69
2023/05/30 09:09:25;;;;;;;3.90;2.50;;;;;;;27.35;30.64;97313.63;110085;1242;59703;-68
2023/05/30 09:11:53;;;;;;;5.00;2.80;;;;;;;27.46;29.68;97315.08;110119;1246;59744;-70
2023/05/30 09:14:21;;;;;;;3.50;2.10;;;;;;;27.97;31.62;97312.42;110229;1244;71079;-69
2023/05/30 09:16:49;;;;;;;3.80;2.50;;;;;;;28.54;32.32;97309.76;110092;1247;70078;-69
2023/05/30 09:19:16;;;;;;;2.80;2.00;;;;;;;28.56;29.78;97308.80;110110;1241;69383;-69
2023/05/30 09:21:45;;;;;;;3.60;2.40;;;;;;;28.87;29.83;97304.93;110086;1251;59712;-69
2023/05/30 09:24:13;;;;;;;3.90;2.20;;;;;;;28.74;30.15;97306.04;110108;1245;59664;-69
2023/05/30 09:27:01;;;;;;;3.40;1.90;;;;;;;29.53;29.80;97309.77;110091;1250;71068;-70
2023/05/30 09:29:29;;;;;;;3.50;2.80;;;;;;;29.51;28.26;97305.58;110113;1242;69705;-70
2023/05/30 09:31:57;;;;;;;3.40;2.20;;;;;;;29.27;28.10;97301.60;110128;1247;69783;-70
2023/05/30 09:34:25;;;;;;;3.00;2.40;;;;;;;28.73;31.12;97296.38;110083;1245;59746;-68
2023/05/30 09:36:55;;;;;;;3.50;2.40;;;;;;;29.02;31.22;97294.23;110100;1245;59674;-70
2023/05/30 09:39:26;;;;;;;3.70;2.70;;;;;;;29.42;29.80;97293.45;110121;1250;71288;-69
2023/05/30 09:41:57;;;;;;;2.90;2.10;;;;;;;29.00;28.53;97283.66;110101;1244;69847;-69
2023/05/30 09:44:25;;;;;;;5.70;2.40;;;;;;;29.40;29.32;97284.00;110097;1244;68138;-69
2023/05/30 09:46:57;;;;;;;3.10;2.50;;;;;;;29.55;29.04;97282.73;110072;1247;59634;-69
2023/05/30 09:49:28;;;;;;;3.60;2.10;;;;;;;29.56;29.09;97283.14;110118;1246;59694;-70
2023/05/30 09:51:56;;;;;;;3.70;2.60;;;;;;;29.70;28.55;97277.20;110128;1246;70594;-71
2023/05/30 09:54:24;;;;;;;4.40;2.30;;;;;;;29.91;27.84;97277.96;110099;1242;69260;-70
2023/05/30 09:56:52;;;;;;;4.40;2.60;;;;;;;29.43;27.94;97275.01;110122;1245;69726;-70
2023/05/30 09:59:22;;;;;;;4.40;2.70;;;;;;;29.11;29.38;97270.83;110064;1244;59734;-70
2023/05/30 10:01:49;;;;;;;4.40;2.50;;;;;;;28.48;28.56;97266.69;110092;1246;59643;-69
2023/05/30 10:04:19;;;;;;;4.30;2.80;;;;;;;28.88;29.59;97262.78;110110;1243;71698;-69
2023/05/30 10:06:49;;;;;;;4.30;2.70;;;;;;;29.26;29.19;97257.83;110131;1243;70179;-68
2023/05/30 10:09:16;;;;;;;4.00;2.70;;;;;;;29.27;28.89;97253.76;110075;1245;70213;-68
2023/05/30 10:11:44;;;;;;;4.10;3.20;;;;;;;29.16;29.67;97250.05;110073;1242;59748;-69
2023/05/30 10:14:13;;;;;;;3.70;2.50;;;;;;;28.73;29.79;97243.20;110090;1252;59673;-68
2023/05/30 10:16:59;;;;;;;3.90;2.80;;;;;;;28.64;29.83;97241.18;110070;1241;72015;-69
2023/05/30 10:19:40;;;;;;;4.90;3.20;;;;;;;28.81;29.86;97237.64;110122;1246;69844;-69
2023/05/30 10:22:09;;;;;;;4.30;2.80;;;;;;;28.81;28.62;97234.30;110130;1244;69275;-69
2023/05/30 10:24:38;;;;;;;4.40;2.80;;;;;;;28.64;28.53;97232.54;110083;1243;59747;-69
2023/05/30 10:27:11;;;;;;;4.30;2.90;;;;;;;28.37;29.07;97228.30;110103;1244;59635;-69
2023/05/30 10:29:55;;;;;;;4.80;2.70;;;;;;;27.99;29.57;97226.00;110099;1247;71980;-69
2023/05/30 10:32:26;;;;;;;3.60;2.70;;;;;;;27.79;31.54;97227.17;110106;1246;69832;-68
2023/05/30 10:35:25;;;;;;;4.30;2.70;;;;;;;27.90;30.60;97226.94;110121;1245;69131;-69
2023/05/30 10:37:55;;;;;;;5.90;3.30;;;;;;;27.92;30.64;97226.25;110029;1251;59703;-68
2023/05/30 10:40:27;;;;;;;4.50;2.60;;;;;;;28.11;30.72;97226.12;110094;1245;59622;-69
2023/05/30 10:43:07;;;;;;;4.70;2.80;;;;;;;28.19;31.37;97225.92;110071;1241;70626;-68
2023/05/30 10:46:07;;;;;;;4.40;3.10;;;;;;;28.37;30.83;97228.05;109572;1246;708064;-68
2023/05/30 10:48:53;;;;;;;4.70;2.80;;;;;;;28.41;31.48;97218.61;110095;1245;70197;-70
2023/05/30 10:51:21;;;;;;;4.70;2.80;;;;;;;28.05;31.27;97212.02;110140;1246;59708;-70
2023/05/30 10:53:50;;;;;;;4.50;3.10;;;;;;;28.30;31.26;97210.36;110076;1246;59745;-66
2023/05/30 10:56:39;;;;;;;5.50;2.80;;;;;;;28.49;30.80;97211.23;110113;1247;71475;-70
2023/05/30 10:59:18;;;;;;;4.30;2.80;;;;;;;28.46;31.23;97211.52;110121;1245;69827;-70
2023/05/30 11:02:01;;;;;;;4.80;3.00;;;;;;;28.83;31.13;97209.44;110128;1243;69301;-70
2023/05/30 11:04:42;;;;;;;3.60;2.70;;;;;;;29.13;30.72;97209.20;110104;1245;59698;-70
2023/05/30 11:07:14;;;;;;;4.40;3.10;;;;;;;29.25;31.75;97208.98;110115;1245;59686;-70
2023/05/30 11:10:00;;;;;;;4.30;3.10;;;;;;;29.47;31.90;97207.27;110112;1245;72692;-69
2023/05/30 11:12:27;;;;;;;7.00;3.40;;;;;;;29.71;29.43;97206.13;110119;1246;69394;-69
2023/05/30 11:14:57;;;;;;;3.90;2.90;;;;;;;29.75;30.28;97208.29;110077;1245;69807;-68
2023/05/30 11:17:34;;;;;;;5.50;3.20;;;;;;;29.66;29.90;97204.67;110108;1244;59743;-70
2023/05/30 11:20:22;;;;;;;3.60;3.00;;;;;;;29.87;29.71;97204.77;110115;1246;59681;-70
2023/05/30 11:23:02;;;;;;;4.10;3.00;;;;;;;29.81;28.76;97198.38;110126;1241;70692;-69
2023/05/30 11:25:33;;;;;;;5.40;2.70;;;;;;;29.95;30.68;97192.03;110088;1244;69274;-68
2023/05/30 11:28:03;;;;;;;4.30;3.10;;;;;;;29.99;30.78;97190.54;110072;1246;68490;-70
2023/05/30 11:30:33;;;;;;;6.20;3.50;;;;;;;29.88;31.75;97194.38;110074;1245;59702;-70
2023/05/30 11:33:01;;;;;;;5.30;3.00;;;;;;;29.95;29.77;97193.27;110124;1246;59707;-69
2023/05/30 11:35:31;;;;;;;4.30;3.00;;;;;;;29.91;30.32;97189.00;110110;1245;71684;-69
2023/05/30 11:38:00;;;;;;;3.90;2.90;;;;;;;30.01;29.45;97186.75;110116;1245;69658;-69
2023/05/30 11:40:30;;;;;;;3.50;2.70;;;;;;;30.00;29.83;97179.94;110072;1246;69734;-69